Time;durP1;ratioP1;P1;durP2;ratioP2;P2;SDS_P1;SDS_P2;PMS_P1;PMS_P2;Temp;Humidity;BMP_temperature;BMP_pressure;BME280_temperature;BME280_humidity;BME280_pressure;Samples;Min_cycle;Max_cycle;Signal;HPM_P1;HPM_P2
2022/10/21 00:01:54;;;;;;;14.00;7.30;;;13.20;99.90;;;;;;4197510;28;20195;-67
2022/10/21 00:03:54;;;;;;;13.20;7.13;;;13.30;99.90;;;;;;4196686;28;20219;-67
2022/10/21 00:05:55;;;;;;;11.93;6.57;;;13.20;99.90;;;;;;4197960;28;20210;-66
2022/10/21 00:07:55;;;;;;;12.77;6.53;;;13.10;99.90;;;;;;4197883;28;20580;-66
2022/10/21 00:09:56;;;;;;;14.00;8.00;;;13.10;99.90;;;;;;4198101;28;20191;-66
2022/10/21 00:11:56;;;;;;;13.07;6.93;;;13.10;99.90;;;;;;4197073;28;20183;-67
2022/10/21 00:13:57;;;;;;;12.20;7.33;;;13.10;99.90;;;;;;4197647;28;20176;-67
2022/10/21 00:15:58;;;;;;;18.30;7.77;;;13.10;99.90;;;;;;4197770;28;20199;-67
2022/10/21 00:17:59;;;;;;;12.97;6.97;;;13.00;99.90;;;;;;4197711;28;20184;-67
2022/10/21 00:19:59;;;;;;;16.97;7.90;;;13.00;99.90;;;;;;4197580;28;20237;-67
2022/10/21 00:22:00;;;;;;;15.23;7.50;;;13.10;99.90;;;;;;4196919;28;20211;-67
2022/10/21 00:24:01;;;;;;;15.63;8.33;;;13.10;99.90;;;;;;4197411;28;20180;-67
2022/10/21 00:26:02;;;;;;;16.03;7.70;;;13.20;99.90;;;;;;4197361;28;20954;-67
2022/10/21 00:28:03;;;;;;;13.83;7.77;;;13.20;99.90;;;;;;4197312;28;20194;-67
2022/10/21 00:30:06;;;;;;;17.53;8.13;;;13.20;99.90;;;;;;4197203;28;20215;-67
2022/10/21 00:32:07;;;;;;;16.93;7.77;;;13.30;99.90;;;;;;4196650;28;20269;-67
2022/10/21 00:34:07;;;;;;;15.73;8.00;;;13.20;99.90;;;;;;4197244;28;20647;-67
2022/10/21 00:36:13;;;;;;;12.57;7.30;;;13.20;99.90;;;;;;4197124;28;20230;-67
2022/10/21 00:38:14;;;;;;;13.97;7.07;;;13.20;99.90;;;;;;4197503;28;20223;-67
2022/10/21 00:40:14;;;;;;;16.60;7.03;;;13.20;99.90;;;;;;4196678;28;20222;-67
2022/10/21 00:42:29;;;;;;;17.20;6.80;;;13.20;99.90;;;;;;4197293;28;20274;-67
2022/10/21 00:44:30;;;;;;;13.30;6.27;;;13.10;99.90;;;;;;4197308;28;20205;-67
2022/10/21 00:46:31;;;;;;;11.30;6.27;;;13.10;99.90;;;;;;4195694;28;20203;-67
2022/10/21 00:48:40;;;;;;;10.73;4.47;;;13.20;99.90;;;;;;4196856;28;20659;-67
2022/10/21 00:50:50;;;;;;;14.50;5.47;;;13.30;99.90;;;;;;4196806;28;20195;-67
2022/10/21 00:52:52;;;;;;;8.33;4.23;;;13.40;99.90;;;;;;4197158;28;20628;-67
2022/10/21 00:54:56;;;;;;;9.87;4.17;;;13.30;99.90;;;;;;4197256;28;20219;-67
2022/10/21 00:56:58;;;;;;;8.77;4.20;;;13.40;99.90;;;;;;4196518;28;20621;-67
2022/10/21 00:59:01;;;;;;;12.33;4.37;;;13.50;99.90;;;;;;4196985;28;20233;-67
2022/10/21 01:01:04;;;;;;;9.57;4.17;;;13.40;99.90;;;;;;4196445;28;20187;-67
2022/10/21 01:03:05;;;;;;;14.83;4.00;;;13.50;99.90;;;;;;4194828;28;20185;-67
2022/10/21 01:05:07;;;;;;;7.67;3.20;;;13.60;99.90;;;;;;4180472;28;20179;-67
2022/10/21 01:07:08;;;;;;;7.67;2.93;;;13.70;99.90;;;;;;4180435;28;20566;-67
2022/10/21 01:09:08;;;;;;;10.37;3.80;;;13.80;99.90;;;;;;4179873;28;20184;-67
2022/10/21 01:11:13;;;;;;;7.57;3.10;;;13.90;99.90;;;;;;4179616;28;20223;-67
2022/10/21 01:13:29;;;;;;;6.17;2.80;;;13.90;99.90;;;;;;4180061;28;20542;-67
2022/10/21 01:15:56;;;;;;;9.10;3.80;;;13.90;99.90;;;;;;4180045;28;20509;-68
2022/10/21 01:18:26;;;;;;;9.70;4.30;;;14.00;99.90;;;;;;4179974;28;20539;-67
2022/10/21 01:21:00;;;;;;;6.37;3.40;;;13.80;99.90;;;;;;4179148;28;20206;-67
2022/10/21 01:23:09;;;;;;;14.03;4.67;;;13.80;99.90;;;;;;4180204;28;20271;-67
2022/10/21 01:25:31;;;;;;;6.70;4.10;;;13.70;99.90;;;;;;4194994;28;20678;-67
2022/10/21 01:28:04;;;;;;;13.03;4.50;;;13.60;99.90;;;;;;4180098;28;20253;-67
2022/10/21 01:30:10;;;;;;;9.97;4.43;;;13.60;99.90;;;;;;4179664;28;20191;-67
2022/10/21 01:32:29;;;;;;;7.97;3.80;;;13.50;99.90;;;;;;4194953;28;20282;-67
2022/10/21 01:34:43;;;;;;;10.30;5.17;;;13.50;99.90;;;;;;4179909;28;20219;-67
2022/10/21 01:37:04;;;;;;;12.37;4.80;;;13.40;99.90;;;;;;4179674;28;20209;-67
2022/10/21 01:39:32;;;;;;;7.77;4.00;;;13.30;99.90;;;;;;4179471;28;20212;-67
2022/10/21 01:42:11;;;;;;;16.47;4.77;;;13.30;99.90;;;;;;4178935;28;20655;-67
2022/10/21 01:44:28;;;;;;;65.33;9.77;;;13.30;99.90;;;;;;4179636;28;20248;-67
2022/10/21 01:46:32;;;;;;;9.73;4.60;;;13.40;99.90;;;;;;4179406;28;20700;-67
2022/10/21 01:48:38;;;;;;;13.80;5.23;;;13.30;99.90;;;;;;4179403;28;20255;-67
2022/10/21 01:50:47;;;;;;;11.90;4.73;;;13.20;99.90;;;;;;4179090;28;20204;-67
2022/10/21 01:52:51;;;;;;;12.70;5.93;;;13.30;99.90;;;;;;4179429;28;20233;-67
2022/10/21 01:54:58;;;;;;;13.30;5.00;;;13.30;99.90;;;;;;4179436;28;20273;-67
2022/10/21 01:56:59;;;;;;;10.20;4.50;;;13.30;99.90;;;;;;4179460;28;20563;-67
2022/10/21 01:59:02;;;;;;;9.87;5.60;;;13.20;99.90;;;;;;4179117;28;20219;-67
2022/10/21 02:01:05;;;;;;;12.73;5.07;;;13.10;99.90;;;;;;4178827;28;20192;-67
2022/10/21 02:03:10;;;;;;;10.07;5.53;;;13.10;99.90;;;;;;4179202;28;20180;-67
2022/10/21 02:05:18;;;;;;;15.40;5.20;;;13.20;99.90;;;;;;4179404;28;20187;-67
2022/10/21 02:07:18;;;;;;;12.30;4.77;;;13.30;99.90;;;;;;4179492;28;20199;-67
2022/10/21 02:09:19;;;;;;;12.70;5.40;;;13.30;99.90;;;;;;4178256;28;20680;-67
2022/10/21 02:11:20;;;;;;;12.00;5.37;;;13.40;99.90;;;;;;4178523;28;20180;-67
2022/10/21 02:13:28;;;;;;;14.33;5.93;;;13.40;99.90;;;;;;4179064;28;20200;-67
2022/10/21 02:15:31;;;;;;;12.43;5.40;;;13.40;99.90;;;;;;4178995;28;20560;-67
2022/10/21 02:17:34;;;;;;;11.03;5.87;;;13.40;99.90;;;;;;4179315;28;20211;-67
2022/10/21 02:19:35;;;;;;;18.17;6.00;;;13.40;99.90;;;;;;4178920;28;20208;-67
2022/10/21 02:21:36;;;;;;;9.53;4.43;;;13.40;99.90;;;;;;4178376;28;21582;-67
2022/10/21 02:24:00;;;;;;;10.43;4.57;;;13.40;99.90;;;;;;4179087;28;20187;-67
2022/10/21 02:26:01;;;;;;;8.00;4.33;;;13.30;99.90;;;;;;4178886;28;20694;-67
2022/10/21 02:28:02;;;;;;;11.50;4.90;;;13.20;99.90;;;;;;4179156;28;20675;-67
2022/10/21 02:30:03;;;;;;;8.53;4.53;;;13.20;99.90;;;;;;4179050;28;20660;-67
2022/10/21 02:32:42;;;;;;;15.97;5.00;;;13.20;99.90;;;;;;4177852;28;20241;-67
2022/10/21 02:35:13;;;;;;;7.47;3.87;;;13.40;99.90;;;;;;4178795;28;20188;-67
2022/10/21 02:37:35;;;;;;;11.20;4.67;;;13.50;99.90;;;;;;4179005;28;20727;-67
2022/10/21 02:39:46;;;;;;;9.07;3.73;;;13.50;99.90;;;;;;4178469;28;20269;-67
2022/10/21 02:41:48;;;;;;;9.57;4.00;;;13.60;99.90;;;;;;4178120;28;20176;-67
2022/10/21 02:43:56;;;;;;;10.47;3.40;;;13.60;99.90;;;;;;4184437;28;20620;-67
2022/10/21 02:46:05;;;;;;;9.60;3.67;;;13.70;99.90;;;;;;4195371;28;20754;-67
2022/10/21 02:48:06;;;;;;;6.23;3.37;;;13.70;99.90;;;;;;4195206;28;20183;-67
2022/10/21 02:50:06;;;;;;;7.13;3.13;;;13.80;99.90;;;;;;4195161;28;20685;-67
2022/10/21 02:52:07;;;;;;;10.53;3.43;;;13.90;99.90;;;;;;4188567;28;20195;-67
2022/10/21 02:54:08;;;;;;;6.97;2.80;;;13.90;99.90;;;;;;4190443;28;20195;-67
2022/10/21 02:56:08;;;;;;;10.07;3.40;;;13.90;99.90;;;;;;4195081;28;20752;-67
2022/10/21 02:58:09;;;;;;;6.43;3.07;;;13.80;99.90;;;;;;4195030;28;20548;-67
2022/10/21 03:00:10;;;;;;;11.23;3.23;;;13.90;99.90;;;;;;4194760;28;20179;-67
2022/10/21 03:02:11;;;;;;;11.00;3.83;;;13.90;99.90;;;;;;4194809;28;20194;-68
2022/10/21 03:04:11;;;;;;;5.70;2.97;;;13.90;99.90;;;;;;4195040;28;20584;-67
2022/10/21 03:06:12;;;;;;;7.80;3.00;;;13.90;99.90;;;;;;4194961;28;20286;-67
2022/10/21 03:08:12;;;;;;;10.90;3.13;;;13.80;99.90;;;;;;4194073;28;20171;-67
2022/10/21 03:10:13;;;;;;;8.37;2.90;;;13.80;99.90;;;;;;4192693;28;20195;-67
2022/10/21 03:12:13;;;;;;;8.93;2.93;;;14.00;99.90;;;;;;4181242;28;20254;-67
2022/10/21 03:14:14;;;;;;;6.87;3.07;;;14.00;99.90;;;;;;4178256;28;20184;-67
2022/10/21 03:16:15;;;;;;;8.03;2.90;;;14.00;99.90;;;;;;4178215;28;20996;-67
2022/10/21 03:18:16;;;;;;;10.77;2.80;;;14.00;99.90;;;;;;4178192;28;20219;-67
2022/10/21 03:20:16;;;;;;;6.50;2.77;;;14.10;99.90;;;;;;4179467;28;20541;-67
2022/10/21 03:22:17;;;;;;;5.80;2.57;;;14.10;99.90;;;;;;4183662;28;20180;-67
2022/10/21 03:24:17;;;;;;;5.57;2.77;;;14.10;99.90;;;;;;4183813;28;20581;-68
2022/10/21 03:26:18;;;;;;;6.43;2.77;;;14.10;99.90;;;;;;4183756;28;20294;-68
2022/10/21 03:28:18;;;;;;;10.07;2.87;;;14.20;99.90;;;;;;4183702;28;20184;-67
2022/10/21 03:30:19;;;;;;;7.03;3.00;;;14.10;99.90;;;;;;4183211;28;20180;-68
2022/10/21 03:32:19;;;;;;;6.33;3.10;;;14.10;99.90;;;;;;4183498;28;20180;-67
2022/10/21 03:34:20;;;;;;;9.47;3.27;;;14.00;99.90;;;;;;4183681;28;20575;-67
2022/10/21 03:36:20;;;;;;;8.97;3.10;;;13.90;99.90;;;;;;4183466;28;20967;-68
2022/10/21 03:38:21;;;;;;;7.27;3.33;;;13.90;99.90;;;;;;4182105;28;20215;-67
2022/10/21 03:40:22;;;;;;;7.60;3.10;;;13.80;99.90;;;;;;4183045;28;20275;-68
2022/10/21 03:42:23;;;;;;;7.27;3.00;;;13.80;99.90;;;;;;4183578;28;20285;-67
2022/10/21 03:44:23;;;;;;;6.43;2.83;;;13.80;99.90;;;;;;4183828;28;20188;-67
2022/10/21 03:46:24;;;;;;;13.03;3.93;;;13.80;99.90;;;;;;4183468;28;20254;-67
2022/10/21 03:48:24;;;;;;;9.43;3.90;;;13.80;99.90;;;;;;4183578;28;20186;-67
2022/10/21 03:50:25;;;;;;;8.20;3.70;;;13.80;99.90;;;;;;4183088;28;20180;-67
2022/10/21 03:52:26;;;;;;;9.67;3.27;;;13.80;99.90;;;;;;4183564;28;20269;-67
2022/10/21 03:54:26;;;;;;;11.87;4.47;;;13.80;99.90;;;;;;4183737;28;20287;-67
2022/10/21 03:56:27;;;;;;;15.43;3.73;;;13.80;99.90;;;;;;4183727;28;20207;-67
2022/10/21 03:58:27;;;;;;;8.13;3.67;;;13.70;99.90;;;;;;4183683;28;20212;-67
2022/10/21 04:00:28;;;;;;;7.97;4.20;;;13.70;99.90;;;;;;4183605;28;20678;-67
2022/10/21 04:02:28;;;;;;;8.23;3.57;;;13.80;99.90;;;;;;4200363;28;20679;-67
2022/10/21 04:04:29;;;;;;;12.33;3.60;;;13.80;99.90;;;;;;4200340;28;20167;-68
2022/10/21 04:06:29;;;;;;;8.97;4.00;;;13.80;99.90;;;;;;4200337;28;20742;-67
2022/10/21 04:08:30;;;;;;;12.17;4.40;;;13.90;99.90;;;;;;4200161;28;20198;-67
2022/10/21 04:10:31;;;;;;;8.80;4.07;;;13.80;99.90;;;;;;4199649;28;20186;-67
2022/10/21 04:12:31;;;;;;;10.73;3.93;;;13.80;99.90;;;;;;4199995;28;20563;-67
2022/10/21 04:14:32;;;;;;;17.07;4.43;;;13.70;99.90;;;;;;4200206;28;20814;-68
2022/10/21 04:16:33;;;;;;;7.80;3.63;;;13.70;99.90;;;;;;4200184;28;20264;-67
2022/10/21 04:18:33;;;;;;;11.57;3.63;;;13.70;99.90;;;;;;4200041;28;20233;-68
2022/10/21 04:20:34;;;;;;;12.53;5.03;;;13.80;99.90;;;;;;4199300;28;20320;-67
2022/10/21 04:22:34;;;;;;;10.57;4.90;;;13.80;99.90;;;;;;4200035;28;20594;-68
2022/10/21 04:24:35;;;;;;;11.07;4.30;;;13.80;99.90;;;;;;4200011;28;20707;-67
2022/10/21 04:26:36;;;;;;;10.37;4.40;;;13.70;99.90;;;;;;4199955;28;20230;-69
2022/10/21 04:28:36;;;;;;;10.23;4.80;;;13.70;99.90;;;;;;4200104;28;20191;-67
2022/10/21 04:30:38;;;;;;;11.47;4.93;;;13.70;99.90;;;;;;4199312;28;20183;-68
2022/10/21 04:32:38;;;;;;;7.50;4.73;;;13.70;99.90;;;;;;4197320;28;20545;-67
2022/10/21 04:34:39;;;;;;;10.23;4.30;;;13.60;99.90;;;;;;4197556;28;20187;-67
2022/10/21 04:36:39;;;;;;;12.17;4.70;;;13.60;99.90;;;;;;4197137;28;20192;-67
2022/10/21 04:38:40;;;;;;;10.70;4.10;;;13.60;99.90;;;;;;4197282;28;20324;-69
2022/10/21 04:40:41;;;;;;;11.93;4.77;;;13.60;99.90;;;;;;4196762;28;20673;-68
2022/10/21 04:42:41;;;;;;;10.07;4.33;;;13.60;99.90;;;;;;4197237;28;20642;-67
2022/10/21 04:44:42;;;;;;;13.77;3.77;;;13.60;99.90;;;;;;4197221;28;20176;-67
2022/10/21 04:46:42;;;;;;;8.40;3.97;;;13.60;99.90;;;;;;4196855;28;20195;-67
2022/10/21 04:48:43;;;;;;;12.50;4.83;;;13.60;99.90;;;;;;4196936;28;20195;-68
2022/10/21 04:50:43;;;;;;;8.70;3.77;;;13.60;99.90;;;;;;4196401;28;20634;-68
2022/10/21 04:52:44;;;;;;;11.70;4.00;;;13.70;99.90;;;;;;4196870;28;20960;-68
2022/10/21 04:54:44;;;;;;;7.97;3.70;;;13.70;99.90;;;;;;4197063;28;20190;-67
2022/10/21 04:56:45;;;;;;;8.67;3.87;;;13.70;99.90;;;;;;4196759;28;20611;-68
2022/10/21 04:58:46;;;;;;;8.87;3.70;;;13.80;99.90;;;;;;4196950;28;20682;-68
2022/10/21 05:00:46;;;;;;;12.77;4.23;;;13.80;99.90;;;;;;4195007;28;20184;-68
2022/10/21 05:02:47;;;;;;;10.17;3.83;;;13.80;99.90;;;;;;4180697;28;20184;-67
2022/10/21 05:04:47;;;;;;;20.07;5.83;;;13.70;99.90;;;;;;4189333;28;20321;-67
2022/10/21 05:06:48;;;;;;;13.63;4.43;;;13.70;99.90;;;;;;4196697;28;20272;-68
2022/10/21 05:08:48;;;;;;;13.47;4.80;;;13.70;99.90;;;;;;4196763;28;20184;-68
2022/10/21 05:10:56;;;;;;;13.77;5.17;;;13.70;99.90;;;;;;4196175;28;20206;-68
2022/10/21 05:12:57;;;;;;;10.80;5.00;;;13.70;99.90;;;;;;4196874;28;20661;-68
2022/10/21 05:14:59;;;;;;;13.43;4.87;;;13.70;99.90;;;;;;4196796;28;20229;-68
2022/10/21 05:16:59;;;;;;;12.43;5.30;;;13.80;99.90;;;;;;4193054;28;20985;-67
2022/10/21 05:19:00;;;;;;;11.70;4.50;;;13.70;99.90;;;;;;4180047;28;20216;-68
2022/10/21 05:21:01;;;;;;;13.60;5.53;;;13.70;99.90;;;;;;4179550;28;20239;-68
2022/10/21 05:23:01;;;;;;;11.23;5.20;;;13.70;99.90;;;;;;4180050;28;20173;-67
2022/10/21 05:25:02;;;;;;;12.07;4.97;;;13.70;99.90;;;;;;4180163;28;20180;-68
2022/10/21 05:27:02;;;;;;;18.57;7.70;;;13.80;99.90;;;;;;4180042;28;20330;-68
2022/10/21 05:29:03;;;;;;;15.70;4.90;;;13.70;99.90;;;;;;4180111;28;20184;-68
2022/10/21 05:31:04;;;;;;;9.90;4.87;;;13.70;99.90;;;;;;4179339;28;20207;-68
2022/10/21 05:33:05;;;;;;;10.90;5.33;;;13.60;99.90;;;;;;4179951;28;20561;-67
2022/10/21 05:35:06;;;;;;;12.80;5.40;;;13.60;99.90;;;;;;4179860;28;20188;-67
2022/10/21 05:37:06;;;;;;;14.27;5.57;;;13.50;99.90;;;;;;4179636;28;20203;-67
2022/10/21 05:39:10;;;;;;;12.57;4.90;;;13.50;99.90;;;;;;4179538;28;20665;-67
2022/10/21 05:41:11;;;;;;;12.67;4.57;;;13.50;99.90;;;;;;4179050;28;20181;-68
2022/10/21 05:43:11;;;;;;;15.33;5.30;;;13.60;99.90;;;;;;4179296;28;20271;-68
2022/10/21 05:45:12;;;;;;;12.27;5.63;;;13.70;99.90;;;;;;4179385;28;20177;-67
2022/10/21 05:47:13;;;;;;;20.20;7.80;;;13.50;99.90;;;;;;4180241;28;20265;-67
2022/10/21 05:49:13;;;;;;;15.97;6.10;;;13.50;99.90;;;;;;4179663;28;20196;-67
2022/10/21 05:51:14;;;;;;;13.50;5.27;;;13.50;99.90;;;;;;4178934;28;20180;-68
2022/10/21 05:53:15;;;;;;;15.43;5.63;;;13.50;99.90;;;;;;4179483;28;20608;-68
2022/10/21 05:55:16;;;;;;;11.77;5.67;;;13.60;99.90;;;;;;4179321;28;20184;-68
2022/10/21 05:57:16;;;;;;;14.63;6.90;;;13.60;99.90;;;;;;4179347;28;20211;-67
2022/10/21 05:59:17;;;;;;;18.30;7.27;;;13.50;99.90;;;;;;4179372;28;20354;-68
2022/10/21 06:01:17;;;;;;;16.43;7.50;;;13.60;99.90;;;;;;4178799;28;20205;-68
2022/10/21 06:03:18;;;;;;;11.60;5.73;;;13.60;99.90;;;;;;4179440;28;20637;-68
2022/10/21 06:05:20;;;;;;;10.17;5.50;;;13.50;99.90;;;;;;4179581;28;20191;-67
2022/10/21 06:07:20;;;;;;;16.07;5.03;;;13.60;99.90;;;;;;4179854;28;20678;-67
2022/10/21 06:09:21;;;;;;;11.10;5.87;;;13.70;99.90;;;;;;4179531;28;20283;-67
2022/10/21 06:11:21;;;;;;;15.30;6.60;;;13.60;99.90;;;;;;4178586;28;20245;-66
2022/10/21 06:13:22;;;;;;;16.53;6.10;;;13.50;99.90;;;;;;4194495;28;20207;-66
2022/10/21 06:15:22;;;;;;;11.50;5.47;;;13.50;99.90;;;;;;4179462;28;20614;-67
2022/10/21 06:17:23;;;;;;;13.37;5.87;;;13.50;99.90;;;;;;4179061;28;20299;-67
2022/10/21 06:19:23;;;;;;;8.53;4.70;;;13.60;99.90;;;;;;4179162;28;20208;-67
2022/10/21 06:21:24;;;;;;;9.83;4.20;;;13.60;99.90;;;;;;4178482;28;20180;-67
2022/10/21 06:23:25;;;;;;;9.33;4.03;;;13.50;99.90;;;;;;4179050;28;20184;-67
2022/10/21 06:25:25;;;;;;;6.57;3.60;;;13.60;99.90;;;;;;4179023;28;20230;-67
2022/10/21 06:27:26;;;;;;;11.23;4.50;;;13.60;99.90;;;;;;4179085;28;20215;-67
2022/10/21 06:29:27;;;;;;;7.53;3.33;;;13.60;99.90;;;;;;4179099;28;21305;-67
2022/10/21 06:31:27;;;;;;;9.17;3.37;;;13.60;99.90;;;;;;4178137;28;20184;-67
2022/10/21 06:33:28;;;;;;;7.13;3.00;;;13.60;99.90;;;;;;4178741;28;20190;-67
2022/10/21 06:35:28;;;;;;;7.53;3.43;;;13.60;99.90;;;;;;4178725;28;20234;-67
2022/10/21 06:37:29;;;;;;;9.40;3.43;;;13.50;99.90;;;;;;4178524;28;20196;-67
2022/10/21 06:39:29;;;;;;;10.03;3.60;;;13.60;99.90;;;;;;4178638;28;20590;-68
2022/10/21 06:41:30;;;;;;;9.60;3.97;;;13.60;99.90;;;;;;4178389;28;20180;-68
2022/10/21 06:43:31;;;;;;;12.33;4.10;;;13.50;99.90;;;;;;4178828;28;20184;-68
2022/10/21 06:45:31;;;;;;;7.37;3.70;;;13.50;99.90;;;;;;4178960;28;20659;-68
2022/10/21 06:47:32;;;;;;;13.07;4.50;;;13.50;99.90;;;;;;4178711;28;20247;-67
2022/10/21 06:49:33;;;;;;;8.70;4.10;;;13.50;99.90;;;;;;4178709;28;20663;-68
2022/10/21 06:51:33;;;;;;;6.73;2.87;;;13.50;99.90;;;;;;4185622;28;20560;-68
2022/10/21 06:53:34;;;;;;;5.50;2.17;;;13.50;99.90;;;;;;4195371;28;20184;-67
2022/10/21 06:55:35;;;;;;;3.80;2.17;;;13.50;99.90;;;;;;4194809;28;20316;-68
2022/10/21 06:57:36;;;;;;;9.30;2.97;;;13.40;99.90;;;;;;4195734;28;20228;-68
2022/10/21 06:59:36;;;;;;;8.33;3.30;;;13.40;99.90;;;;;;4195058;28;20357;-68
2022/10/21 07:01:37;;;;;;;7.03;2.90;;;13.50;99.90;;;;;;4194625;28;20179;-68
2022/10/21 07:03:37;;;;;;;5.63;2.47;;;13.40;99.90;;;;;;4195281;28;20215;-67
2022/10/21 07:05:38;;;;;;;6.33;2.93;;;13.50;99.90;;;;;;4195152;28;20548;-68
2022/10/21 07:07:38;;;;;;;3.97;2.50;;;13.50;99.90;;;;;;4195084;28;20211;-68
2022/10/21 07:09:39;;;;;;;4.67;2.27;;;13.50;99.90;;;;;;4190072;28;20188;-68
2022/10/21 07:11:39;;;;;;;7.80;2.97;;;13.50;99.90;;;;;;4177764;28;20271;-68
2022/10/21 07:13:40;;;;;;;7.33;2.53;;;13.50;99.90;;;;;;4178392;28;20191;-68
2022/10/21 07:15:41;;;;;;;7.17;2.70;;;13.30;99.90;;;;;;4178401;28;20263;-68
2022/10/21 07:17:41;;;;;;;5.47;2.37;;;13.40;99.90;;;;;;4178500;28;20188;-68
2022/10/21 07:19:42;;;;;;;6.00;2.80;;;13.40;99.90;;;;;;4178481;28;20208;-68
2022/10/21 07:21:43;;;;;;;8.63;2.97;;;13.30;99.90;;;;;;4177588;28;20194;-67
2022/10/21 07:23:45;;;;;;;7.33;2.43;;;13.20;99.90;;;;;;4193612;28;20207;-67
2022/10/21 07:25:46;;;;;;;8.37;3.77;;;13.20;99.90;;;;;;4178135;28;20175;-67
2022/10/21 07:27:48;;;;;;;6.20;4.07;;;13.20;99.90;;;;;;4178298;28;20738;-68
2022/10/21 07:29:48;;;;;;;8.33;3.87;;;13.20;99.90;;;;;;4178339;28;20211;-67
2022/10/21 07:31:49;;;;;;;6.50;3.53;;;13.20;99.90;;;;;;4192741;28;20224;-68
2022/10/21 07:33:50;;;;;;;10.50;5.47;;;13.30;99.90;;;;;;4177800;28;20187;-68
2022/10/21 07:35:51;;;;;;;8.17;5.27;;;13.20;99.90;;;;;;4178229;28;20183;-67
2022/10/21 07:37:52;;;;;;;8.97;5.77;;;13.20;99.90;;;;;;4178153;28;20231;-67
2022/10/21 07:39:53;;;;;;;9.43;5.67;;;13.20;99.90;;;;;;4178221;28;20208;-68
2022/10/21 07:41:56;;;;;;;13.03;7.33;;;13.20;99.90;;;;;;4177724;28;20534;-68
2022/10/21 07:43:57;;;;;;;10.67;5.37;;;13.20;99.90;;;;;;4178173;28;20181;-67
2022/10/21 07:45:58;;;;;;;9.00;5.00;;;13.10;99.90;;;;;;4178073;28;20193;-68
2022/10/21 07:47:59;;;;;;;8.53;5.43;;;13.20;99.90;;;;;;4178252;28;20592;-67
2022/10/21 07:49:59;;;;;;;10.23;5.43;;;13.30;99.90;;;;;;4178245;28;20183;-68
2022/10/21 07:52:00;;;;;;;10.50;6.17;;;13.20;99.90;;;;;;4177619;28;20192;-67
2022/10/21 07:54:02;;;;;;;13.70;7.60;;;13.20;99.90;;;;;;4178176;28;20304;-67
2022/10/21 07:56:15;;;;;;;10.60;5.60;;;13.20;99.90;;;;;;4178156;28;20192;-69
2022/10/21 07:58:16;;;;;;;11.07;5.30;;;13.20;99.90;;;;;;4177975;28;20183;-68
2022/10/21 08:00:16;;;;;;;10.47;4.57;;;13.20;99.90;;;;;;4177312;28;20271;-68
2022/10/21 08:02:17;;;;;;;9.23;4.53;;;13.20;99.90;;;;;;4177993;28;20180;-67
2022/10/21 08:04:20;;;;;;;6.43;3.40;;;13.30;99.90;;;;;;4177970;28;20180;-68
2022/10/21 08:06:23;;;;;;;4.20;2.90;;;13.30;99.90;;;;;;4178406;28;20203;-68
2022/10/21 08:08:24;;;;;;;9.77;4.13;;;13.40;99.90;;;;;;4180845;28;20524;-68
2022/10/21 08:10:24;;;;;;;5.43;3.20;;;13.60;99.90;;;;;;4180838;28;20199;-67
2022/10/21 08:12:25;;;;;;;8.20;3.40;;;13.80;99.90;;;;;;4181298;28;20192;-67
2022/10/21 08:14:25;;;;;;;7.43;3.50;;;13.80;99.90;;;;;;4181424;28;20184;-68
2022/10/21 08:16:26;;;;;;;3.37;2.63;;;13.80;99.90;;;;;;4181585;28;20192;-67
2022/10/21 08:18:27;;;;;;;4.97;3.03;;;13.90;99.90;;;;;;4181241;28;20215;-67
2022/10/21 08:20:27;;;;;;;5.87;3.00;;;13.90;99.90;;;;;;4180523;28;20670;-67
2022/10/21 08:22:28;;;;;;;3.90;2.00;;;14.00;99.90;;;;;;4181237;28;20275;-68
2022/10/21 08:24:28;;;;;;;5.10;2.90;;;14.10;99.90;;;;;;4181287;28;20179;-67
2022/10/21 08:26:29;;;;;;;4.40;1.90;;;14.00;99.90;;;;;;4181391;28;20192;-68
2022/10/21 08:28:30;;;;;;;3.00;1.70;;;14.00;99.90;;;;;;4181250;28;20210;-68
2022/10/21 08:30:31;;;;;;;5.97;2.00;;;14.00;99.90;;;;;;4180458;28;20185;-68
2022/10/21 08:32:32;;;;;;;3.03;1.60;;;14.00;99.90;;;;;;4181238;28;20697;-69
2022/10/21 08:34:33;;;;;;;3.37;1.50;;;14.00;99.90;;;;;;4181021;28;20220;-68
2022/10/21 08:36:33;;;;;;;2.63;1.50;;;14.10;99.90;;;;;;4181961;28;20595;-68
2022/10/21 08:38:35;;;;;;;4.10;1.43;;;14.30;99.90;;;;;;4181284;28;20210;-68
2022/10/21 08:40:46;;;;;;;4.10;1.80;;;14.30;99.90;;;;;;4179084;28;20229;-68
2022/10/21 08:42:47;;;;;;;2.93;1.73;;;14.30;99.90;;;;;;4180880;28;20706;-68
2022/10/21 08:44:59;;;;;;;2.00;1.20;;;14.30;99.90;;;;;;4180746;28;20191;-68
2022/10/21 08:47:24;;;;;;;2.77;1.30;;;14.20;99.90;;;;;;4180741;28;20200;-68
2022/10/21 08:49:48;;;;;;;2.30;1.60;;;14.20;99.90;;;;;;4196271;28;20191;-68
2022/10/21 08:51:54;;;;;;;2.90;1.97;;;14.20;99.90;;;;;;4179480;28;20884;-68
2022/10/21 08:53:58;;;;;;;4.17;1.90;;;14.20;99.90;;;;;;4180680;28;20196;-68
2022/10/21 08:56:05;;;;;;;3.13;1.83;;;14.30;99.90;;;;;;4180754;28;20227;-68
2022/10/21 08:58:14;;;;;;;4.57;2.33;;;14.30;99.90;;;;;;4180678;28;20226;-68
2022/10/21 09:00:18;;;;;;;2.33;1.57;;;14.30;99.90;;;;;;4187667;28;20689;-68
2022/10/21 09:02:28;;;;;;;3.97;1.60;;;14.40;99.90;;;;;;4196972;28;20220;-68
2022/10/21 09:04:47;;;;;;;1.20;1.10;;;14.50;99.90;;;;;;4197019;28;20171;-67
2022/10/21 09:07:18;;;;;;;1.43;1.17;;;14.50;99.90;;;;;;4196828;28;20216;-67
2022/10/21 09:09:33;;;;;;;2.90;1.27;;;14.60;99.90;;;;;;4196870;28;20184;-67
2022/10/21 09:11:34;;;;;;;4.07;1.60;;;14.80;99.90;;;;;;4196340;28;20188;-68
2022/10/21 09:13:40;;;;;;;5.17;1.70;;;15.00;99.90;;;;;;4196866;28;20199;-67
2022/10/21 09:16:13;;;;;;;2.83;1.30;;;15.10;99.90;;;;;;4196663;28;20187;-64
2022/10/21 09:18:29;;;;;;;2.53;1.20;;;15.20;99.90;;;;;;4186568;28;20192;-67
2022/10/21 09:20:58;;;;;;;3.97;1.60;;;15.30;99.90;;;;;;4195390;28;20256;-67
2022/10/21 09:23:25;;;;;;;5.50;1.57;;;15.30;99.90;;;;;;4181520;28;20346;-68
2022/10/21 09:25:52;;;;;;;1.87;1.77;;;15.30;99.90;;;;;;4208167;28;20195;-67
2022/10/21 09:27:54;;;;;;;4.30;1.23;;;15.00;99.90;;;;;;4196264;28;20293;-67
2022/10/21 09:30:05;;;;;;;2.63;1.07;;;14.90;99.90;;;;;;4204708;28;20191;-67
2022/10/21 09:32:22;;;;;;;1.03;0.90;;;14.80;99.90;;;;;;4201612;28;20222;-67
2022/10/21 09:34:32;;;;;;;1.57;1.00;;;14.80;99.90;;;;;;4209061;28;20220;-67
2022/10/21 09:36:36;;;;;;;2.30;0.97;;;14.80;99.90;;;;;;4198304;28;20682;-68
2022/10/21 09:38:42;;;;;;;3.27;2.00;;;14.70;99.90;;;;;;4210168;28;20210;-68
2022/10/21 09:40:46;;;;;;;1.40;0.90;;;14.60;99.90;;;;;;4196160;28;20287;-68
2022/10/21 09:42:49;;;;;;;4.03;1.80;;;14.60;99.90;;;;;;4211981;28;20183;-67
2022/10/21 09:44:50;;;;;;;2.63;1.10;;;14.60;99.90;;;;;;4195860;28;20896;-67
2022/10/21 09:46:52;;;;;;;2.40;1.83;;;14.60;99.90;;;;;;4212442;28;20215;-67
2022/10/21 09:48:55;;;;;;;1.40;1.03;;;14.50;99.90;;;;;;4179509;28;20224;-68
2022/10/21 09:51:08;;;;;;;2.37;1.10;;;14.40;99.90;;;;;;4195657;28;20242;-68
2022/10/21 09:53:21;;;;;;;1.70;0.90;;;14.30;99.90;;;;;;4209934;28;20198;-68
2022/10/21 09:55:22;;;;;;;1.33;0.80;;;14.30;99.90;;;;;;4198791;28;20696;-68
2022/10/21 09:57:55;;;;;;;2.90;1.50;;;14.30;99.90;;;;;;4208197;28;20275;-68
2022/10/21 10:00:01;;;;;;;2.93;1.50;;;14.30;99.90;;;;;;4204379;28;20214;-68
2022/10/21 10:02:07;;;;;;;2.77;1.40;;;14.40;99.90;;;;;;4201986;28;20780;-68
2022/10/21 10:04:13;;;;;;;3.00;1.20;;;14.40;99.90;;;;;;4206015;28;20190;-68
2022/10/21 10:06:33;;;;;;;2.10;1.40;;;14.40;99.90;;;;;;4200414;28;20959;-68
2022/10/21 10:08:46;;;;;;;6.40;2.27;;;14.30;99.90;;;;;;4209623;28;20244;-69
2022/10/21 10:10:46;;;;;;;3.30;1.27;;;14.10;99.90;;;;;;4211748;28;20198;-66
2022/10/21 10:12:56;;;;;;;1.97;1.27;;;14.10;99.90;;;;;;4195836;28;20203;-67
2022/10/21 10:15:17;;;;;;;2.47;1.00;;;14.10;99.90;;;;;;4180121;28;20223;-66
2022/10/21 10:17:38;;;;;;;2.20;0.90;;;14.10;99.90;;;;;;4208068;28;20646;-68
2022/10/21 10:19:39;;;;;;;1.50;1.20;;;14.00;99.90;;;;;;4202002;28;20265;-66
2022/10/21 10:21:39;;;;;;;1.43;1.00;;;14.10;99.90;;;;;;4204338;28;20180;-66
2022/10/21 10:23:45;;;;;;;1.50;0.80;;;14.20;99.90;;;;;;4201978;28;20186;-66
2022/10/21 10:25:51;;;;;;;1.53;0.93;;;14.10;99.90;;;;;;4204281;28;20270;-67
2022/10/21 10:28:02;;;;;;;4.53;3.00;;;14.10;99.90;;;;;;4203508;28;20262;-66
2022/10/21 10:30:03;;;;;;;5.47;2.50;;;14.10;99.90;;;;;;4199780;28;20188;-66
2022/10/21 10:32:12;;;;;;;3.83;1.30;;;14.10;99.90;;;;;;4204614;28;20205;-66
2022/10/21 10:34:30;;;;;;;3.40;1.43;;;14.10;99.90;;;;;;4200535;28;20191;-66
2022/10/21 10:36:35;;;;;;;5.40;1.33;;;14.20;99.90;;;;;;4208935;28;20675;-67
2022/10/21 10:38:51;;;;;;;3.50;1.53;;;14.10;99.90;;;;;;4197180;28;20227;-67
2022/10/21 10:40:52;;;;;;;2.63;1.30;;;14.00;99.90;;;;;;4177957;28;20184;-66
2022/10/21 10:43:12;;;;;;;5.00;1.30;;;14.00;99.90;;;;;;4211441;28;20525;-67
2022/10/21 10:45:19;;;;;;;2.73;1.30;;;14.00;99.90;;;;;;4197873;28;20661;-68